sensor_id;sensor_type;location;lat;lon;timestamp;temperature;humidity
23520;DHT22;11936;50.820;4.336;2024-03-22T00:00:41;13.80;99.90
23520;DHT22;11936;50.820;4.336;2024-03-22T00:03:07;13.80;99.90
23520;DHT22;11936;50.820;4.336;2024-03-22T00:05:32;13.70;99.90
23520;DHT22;11936;50.820;4.336;2024-03-22T00:07:58;13.70;99.90
23520;DHT22;11936;50.820;4.336;2024-03-22T00:10:24;13.80;99.90
23520;DHT22;11936;50.820;4.336;2024-03-22T00:12:50;13.80;99.90
23520;DHT22;11936;50.820;4.336;2024-03-22T00:15:15;13.90;99.90
23520;DHT22;11936;50.820;4.336;2024-03-22T00:17:44;13.80;99.90
23520;DHT22;11936;50.820;4.336;2024-03-22T00:20:09;13.80;99.90
23520;DHT22;11936;50.820;4.336;2024-03-22T00:22:35;13.90;99.90
23520;DHT22;11936;50.820;4.336;2024-03-22T00:25:01;13.90;99.90
23520;DHT22;11936;50.820;4.336;2024-03-22T00:27:26;13.90;99.90
23520;DHT22;11936;50.820;4.336;2024-03-22T00:29:52;13.80;99.90
23520;DHT22;11936;50.820;4.336;2024-03-22T00:32:17;13.80;99.90
23520;DHT22;11936;50.820;4.336;2024-03-22T00:34:43;13.80;99.90
23520;DHT22;11936;50.820;4.336;2024-03-22T00:37:09;13.90;99.90
23520;DHT22;11936;50.820;4.336;2024-03-22T00:39:34;13.80;99.90
23520;DHT22;11936;50.820;4.336;2024-03-22T00:42:01;13.70;99.90
23520;DHT22;11936;50.820;4.336;2024-03-22T00:44:26;13.70;99.90
23520;DHT22;11936;50.820;4.336;2024-03-22T00:46:52;13.70;99.90
23520;DHT22;11936;50.820;4.336;2024-03-22T00:49:18;13.70;99.90
23520;DHT22;11936;50.820;4.336;2024-03-22T00:51:43;13.70;99.90
23520;DHT22;11936;50.820;4.336;2024-03-22T00:54:10;13.70;99.90
23520;DHT22;11936;50.820;4.336;2024-03-22T00:56:35;13.60;99.90
23520;DHT22;11936;50.820;4.336;2024-03-22T00:59:01;13.70;99.90
23520;DHT22;11936;50.820;4.336;2024-03-22T01:01:27;13.70;99.90
23520;DHT22;11936;50.820;4.336;2024-03-22T01:03:53;13.70;99.90
23520;DHT22;11936;50.820;4.336;2024-03-22T01:06:18;13.70;99.90
23520;DHT22;11936;50.820;4.336;2024-03-22T01:08:49;13.70;99.90
23520;DHT22;11936;50.820;4.336;2024-03-22T01:11:15;13.60;99.90
23520;DHT22;11936;50.820;4.336;2024-03-22T01:13:41;13.50;99.90
23520;DHT22;11936;50.820;4.336;2024-03-22T01:16:06;13.40;99.90
23520;DHT22;11936;50.820;4.336;2024-03-22T01:18:35;13.30;99.90
23520;DHT22;11936;50.820;4.336;2024-03-22T01:21:01;13.20;99.90
23520;DHT22;11936;50.820;4.336;2024-03-22T01:23:27;13.30;99.90
23520;DHT22;11936;50.820;4.336;2024-03-22T01:25:52;13.40;99.90
23520;DHT22;11936;50.820;4.336;2024-03-22T01:28:18;13.50;99.90
23520;DHT22;11936;50.820;4.336;2024-03-22T01:30:44;13.20;99.90
23520;DHT22;11936;50.820;4.336;2024-03-22T01:33:09;13.20;99.90
23520;DHT22;11936;50.820;4.336;2024-03-22T01:35:35;13.20;99.90
23520;DHT22;11936;50.820;4.336;2024-03-22T01:38:00;13.10;99.90
23520;DHT22;11936;50.820;4.336;2024-03-22T01:40:26;13.00;99.90
23520;DHT22;11936;50.820;4.336;2024-03-22T01:42:58;13.20;99.90
23520;DHT22;11936;50.820;4.336;2024-03-22T01:45:25;13.20;99.90
23520;DHT22;11936;50.820;4.336;2024-03-22T01:47:54;13.30;99.90
23520;DHT22;11936;50.820;4.336;2024-03-22T01:50:21;13.30;99.90
23520;DHT22;11936;50.820;4.336;2024-03-22T01:52:47;13.30;99.90
23520;DHT22;11936;50.820;4.336;2024-03-22T01:55:13;13.30;99.90
23520;DHT22;11936;50.820;4.336;2024-03-22T01:57:40;13.20;99.90
23520;DHT22;11936;50.820;4.336;2024-03-22T02:00:06;13.20;99.90
23520;DHT22;11936;50.820;4.336;2024-03-22T02:02:34;13.10;99.90
23520;DHT22;11936;50.820;4.336;2024-03-22T02:05:11;13.10;99.90
23520;DHT22;11936;50.820;4.336;2024-03-22T02:07:36;13.20;99.90
23520;DHT22;11936;50.820;4.336;2024-03-22T02:10:02;13.00;99.90
23520;DHT22;11936;50.820;4.336;2024-03-22T02:12:28;12.90;99.90
23520;DHT22;11936;50.820;4.336;2024-03-22T02:14:53;12.90;99.90
23520;DHT22;11936;50.820;4.336;2024-03-22T02:17:22;12.90;99.90
23520;DHT22;11936;50.820;4.336;2024-03-22T02:19:48;13.00;99.90
23520;DHT22;11936;50.820;4.336;2024-03-22T02:22:13;12.90;99.90
23520;DHT22;11936;50.820;4.336;2024-03-22T02:24:39;12.80;99.90
23520;DHT22;11936;50.820;4.336;2024-03-22T02:27:05;12.70;99.90
23520;DHT22;11936;50.820;4.336;2024-03-22T02:29:30;12.70;99.90
23520;DHT22;11936;50.820;4.336;2024-03-22T02:31:56;12.70;99.90
23520;DHT22;11936;50.820;4.336;2024-03-22T02:34:23;12.70;99.90
23520;DHT22;11936;50.820;4.336;2024-03-22T02:36:49;12.70;99.90
23520;DHT22;11936;50.820;4.336;2024-03-22T02:39:15;12.70;99.90
23520;DHT22;11936;50.820;4.336;2024-03-22T02:41:40;12.80;99.90
23520;DHT22;11936;50.820;4.336;2024-03-22T02:44:06;12.80;99.90
23520;DHT22;11936;50.820;4.336;2024-03-22T02:46:32;12.80;99.90
23520;DHT22;11936;50.820;4.336;2024-03-22T02:48:58;12.90;99.90
23520;DHT22;11936;50.820;4.336;2024-03-22T02:51:23;12.80;99.90
23520;DHT22;11936;50.820;4.336;2024-03-22T02:53:49;12.90;99.90
23520;DHT22;11936;50.820;4.336;2024-03-22T02:56:15;12.90;99.90
23520;DHT22;11936;50.820;4.336;2024-03-22T02:58:40;12.80;99.90
23520;DHT22;11936;50.820;4.336;2024-03-22T03:01:06;12.80;99.90
23520;DHT22;11936;50.820;4.336;2024-03-22T03:03:32;12.80;99.90
23520;DHT22;11936;50.820;4.336;2024-03-22T03:05:57;12.80;99.90
23520;DHT22;11936;50.820;4.336;2024-03-22T03:08:23;12.70;99.90
23520;DHT22;11936;50.820;4.336;2024-03-22T03:10:48;12.70;99.90
23520;DHT22;11936;50.820;4.336;2024-03-22T03:13:14;12.70;99.90
23520;DHT22;11936;50.820;4.336;2024-03-22T03:15:40;12.80;99.90
23520;DHT22;11936;50.820;4.336;2024-03-22T03:18:05;12.70;99.90
23520;DHT22;11936;50.820;4.336;2024-03-22T03:20:31;12.70;99.90
23520;DHT22;11936;50.820;4.336;2024-03-22T03:22:56;12.70;99.90
23520;DHT22;11936;50.820;4.336;2024-03-22T03:25:27;12.70;99.90
23520;DHT22;11936;50.820;4.336;2024-03-22T03:27:53;12.80;99.90
23520;DHT22;11936;50.820;4.336;2024-03-22T03:30:19;12.80;99.90
23520;DHT22;11936;50.820;4.336;2024-03-22T03:32:44;12.90;99.90
23520;DHT22;11936;50.820;4.336;2024-03-22T03:35:10;12.80;99.90
23520;DHT22;11936;50.820;4.336;2024-03-22T03:37:35;12.80;99.90
23520;DHT22;11936;50.820;4.336;2024-03-22T03:40:01;12.90;99.90
23520;DHT22;11936;50.820;4.336;2024-03-22T03:42:27;13.10;99.90
23520;DHT22;11936;50.820;4.336;2024-03-22T03:44:52;13.10;99.90
23520;DHT22;11936;50.820;4.336;2024-03-22T03:47:18;13.10;99.90
23520;DHT22;11936;50.820;4.336;2024-03-22T03:49:47;13.10;99.90
23520;DHT22;11936;50.820;4.336;2024-03-22T03:52:13;13.00;99.90
23520;DHT22;11936;50.820;4.336;2024-03-22T03:54:39;12.90;99.90
23520;DHT22;11936;50.820;4.336;2024-03-22T03:57:05;12.80;99.90
23520;DHT22;11936;50.820;4.336;2024-03-22T03:59:30;12.80;99.90
23520;DHT22;11936;50.820;4.336;2024-03-22T04:01:56;12.80;99.90
23520;DHT22;11936;50.820;4.336;2024-03-22T04:04:21;12.80;99.90
23520;DHT22;11936;50.820;4.336;2024-03-22T04:06:47;12.80;99.90
23520;DHT22;11936;50.820;4.336;2024-03-22T04:09:13;12.70;99.90
23520;DHT22;11936;50.820;4.336;2024-03-22T04:11:39;12.70;99.90
23520;DHT22;11936;50.820;4.336;2024-03-22T04:14:05;12.80;99.90
23520;DHT22;11936;50.820;4.336;2024-03-22T04:16:31;12.90;99.90
23520;DHT22;11936;50.820;4.336;2024-03-22T04:18:57;12.80;99.90
23520;DHT22;11936;50.820;4.336;2024-03-22T04:21:22;12.90;99.90
23520;DHT22;11936;50.820;4.336;2024-03-22T04:23:48;12.80;99.90
23520;DHT22;11936;50.820;4.336;2024-03-22T04:26:15;12.70;99.90
23520;DHT22;11936;50.820;4.336;2024-03-22T04:28:40;12.90;99.90
23520;DHT22;11936;50.820;4.336;2024-03-22T04:31:07;12.90;99.90
23520;DHT22;11936;50.820;4.336;2024-03-22T04:33:34;12.90;99.90
23520;DHT22;11936;50.820;4.336;2024-03-22T04:36:00;12.80;99.90
23520;DHT22;11936;50.820;4.336;2024-03-22T04:38:27;12.60;99.90
23520;DHT22;11936;50.820;4.336;2024-03-22T04:40:53;12.70;99.90
23520;DHT22;11936;50.820;4.336;2024-03-22T04:43:19;12.60;99.90
23520;DHT22;11936;50.820;4.336;2024-03-22T04:45:46;12.60;99.90
23520;DHT22;11936;50.820;4.336;2024-03-22T04:48:14;12.60;99.90
23520;DHT22;11936;50.820;4.336;2024-03-22T04:50:40;12.50;99.90
23520;DHT22;11936;50.820;4.336;2024-03-22T04:53:06;12.50;99.90
23520;DHT22;11936;50.820;4.336;2024-03-22T04:55:32;12.50;99.90
23520;DHT22;11936;50.820;4.336;2024-03-22T04:58:00;12.70;99.90
23520;DHT22;11936;50.820;4.336;2024-03-22T05:00:27;12.90;99.90
23520;DHT22;11936;50.820;4.336;2024-03-22T05:02:53;12.80;99.90
23520;DHT22;11936;50.820;4.336;2024-03-22T05:05:19;12.80;99.90
23520;DHT22;11936;50.820;4.336;2024-03-22T05:07:45;12.80;99.90
23520;DHT22;11936;50.820;4.336;2024-03-22T05:10:11;12.80;99.90
23520;DHT22;11936;50.820;4.336;2024-03-22T05:12:37;13.00;99.90
23520;DHT22;11936;50.820;4.336;2024-03-22T05:15:03;13.20;99.90
23520;DHT22;11936;50.820;4.336;2024-03-22T05:17:29;13.10;99.90
23520;DHT22;11936;50.820;4.336;2024-03-22T05:19:57;13.10;99.90
23520;DHT22;11936;50.820;4.336;2024-03-22T05:22:23;13.10;99.90
23520;DHT22;11936;50.820;4.336;2024-03-22T05:24:48;13.00;99.90
23520;DHT22;11936;50.820;4.336;2024-03-22T05:27:14;12.90;99.90
23520;DHT22;11936;50.820;4.336;2024-03-22T05:29:39;12.90;99.90
23520;DHT22;11936;50.820;4.336;2024-03-22T05:32:05;12.70;99.90
23520;DHT22;11936;50.820;4.336;2024-03-22T05:34:31;12.70;99.90
23520;DHT22;11936;50.820;4.336;2024-03-22T05:36:57;12.50;99.90
23520;DHT22;11936;50.820;4.336;2024-03-22T05:39:22;12.50;99.90
23520;DHT22;11936;50.820;4.336;2024-03-22T05:41:48;12.70;99.90
23520;DHT22;11936;50.820;4.336;2024-03-22T05:44:13;12.60;99.90
23520;DHT22;11936;50.820;4.336;2024-03-22T05:46:39;12.60;99.90
23520;DHT22;11936;50.820;4.336;2024-03-22T05:49:04;12.70;99.90
23520;DHT22;11936;50.820;4.336;2024-03-22T05:51:30;12.60;99.90
23520;DHT22;11936;50.820;4.336;2024-03-22T05:53:56;12.60;99.90
23520;DHT22;11936;50.820;4.336;2024-03-22T05:56:22;12.60;99.90
23520;DHT22;11936;50.820;4.336;2024-03-22T05:58:48;12.60;99.90
23520;DHT22;11936;50.820;4.336;2024-03-22T06:01:13;12.60;99.90
23520;DHT22;11936;50.820;4.336;2024-03-22T06:03:39;12.60;99.90
23520;DHT22;11936;50.820;4.336;2024-03-22T06:06:05;12.40;99.90
23520;DHT22;11936;50.820;4.336;2024-03-22T06:08:30;12.40;99.90
23520;DHT22;11936;50.820;4.336;2024-03-22T06:11:00;12.40;99.90
23520;DHT22;11936;50.820;4.336;2024-03-22T06:13:26;12.30;99.90
23520;DHT22;11936;50.820;4.336;2024-03-22T06:15:52;12.10;99.90
23520;DHT22;11936;50.820;4.336;2024-03-22T06:18:17;11.90;99.90
23520;DHT22;11936;50.820;4.336;2024-03-22T06:20:43;11.80;99.90
23520;DHT22;11936;50.820;4.336;2024-03-22T06:23:09;11.90;99.90
23520;DHT22;11936;50.820;4.336;2024-03-22T06:25:35;12.10;99.90
23520;DHT22;11936;50.820;4.336;2024-03-22T06:28:01;12.10;99.90
23520;DHT22;11936;50.820;4.336;2024-03-22T06:30:27;12.00;99.90
23520;DHT22;11936;50.820;4.336;2024-03-22T06:32:53;12.00;99.90
23520;DHT22;11936;50.820;4.336;2024-03-22T06:35:20;12.00;99.90
23520;DHT22;11936;50.820;4.336;2024-03-22T06:37:46;11.90;99.90
23520;DHT22;11936;50.820;4.336;2024-03-22T06:40:12;11.90;99.90
23520;DHT22;11936;50.820;4.336;2024-03-22T06:42:37;11.90;99.90
23520;DHT22;11936;50.820;4.336;2024-03-22T06:45:03;11.80;99.90
23520;DHT22;11936;50.820;4.336;2024-03-22T06:47:29;11.70;99.90
23520;DHT22;11936;50.820;4.336;2024-03-22T06:49:55;11.80;99.90
23520;DHT22;11936;50.820;4.336;2024-03-22T06:52:20;11.90;99.90
23520;DHT22;11936;50.820;4.336;2024-03-22T06:54:46;11.70;99.90
23520;DHT22;11936;50.820;4.336;2024-03-22T06:57:12;11.60;99.90
23520;DHT22;11936;50.820;4.336;2024-03-22T06:59:38;11.70;99.90
23520;DHT22;11936;50.820;4.336;2024-03-22T07:02:04;11.70;99.90
23520;DHT22;11936;50.820;4.336;2024-03-22T07:04:29;11.70;99.90
23520;DHT22;11936;50.820;4.336;2024-03-22T07:06:55;11.80;99.90
23520;DHT22;11936;50.820;4.336;2024-03-22T07:09:21;11.80;99.90
23520;DHT22;11936;50.820;4.336;2024-03-22T07:11:46;11.80;99.90
23520;DHT22;11936;50.820;4.336;2024-03-22T07:14:12;11.70;99.90
23520;DHT22;11936;50.820;4.336;2024-03-22T07:16:38;11.80;99.90
23520;DHT22;11936;50.820;4.336;2024-03-22T07:19:04;11.90;99.90
23520;DHT22;11936;50.820;4.336;2024-03-22T07:21:31;11.80;99.90
23520;DHT22;11936;50.820;4.336;2024-03-22T07:23:57;11.90;99.90
23520;DHT22;11936;50.820;4.336;2024-03-22T07:26:22;12.00;99.90
23520;DHT22;11936;50.820;4.336;2024-03-22T07:28:48;12.00;99.90
23520;DHT22;11936;50.820;4.336;2024-03-22T07:31:14;11.80;99.90
23520;DHT22;11936;50.820;4.336;2024-03-22T07:33:39;11.90;99.90
23520;DHT22;11936;50.820;4.336;2024-03-22T07:36:06;11.80;99.90
23520;DHT22;11936;50.820;4.336;2024-03-22T07:38:32;11.80;99.90
23520;DHT22;11936;50.820;4.336;2024-03-22T07:40:58;11.80;99.90
23520;DHT22;11936;50.820;4.336;2024-03-22T07:43:23;11.60;99.90
23520;DHT22;11936;50.820;4.336;2024-03-22T07:45:49;11.70;99.90
23520;DHT22;11936;50.820;4.336;2024-03-22T07:48:15;11.90;99.90
23520;DHT22;11936;50.820;4.336;2024-03-22T07:50:41;12.00;99.90
23520;DHT22;11936;50.820;4.336;2024-03-22T07:53:06;12.00;99.90
23520;DHT22;11936;50.820;4.336;2024-03-22T07:55:32;11.90;99.90
23520;DHT22;11936;50.820;4.336;2024-03-22T07:57:58;11.90;99.90
23520;DHT22;11936;50.820;4.336;2024-03-22T08:00:24;11.90;99.90
23520;DHT22;11936;50.820;4.336;2024-03-22T08:02:52;12.00;99.90
23520;DHT22;11936;50.820;4.336;2024-03-22T08:05:18;12.00;99.90
23520;DHT22;11936;50.820;4.336;2024-03-22T08:07:45;12.00;99.90
23520;DHT22;11936;50.820;4.336;2024-03-22T08:10:10;12.00;99.90
23520;DHT22;11936;50.820;4.336;2024-03-22T08:12:36;12.00;99.90
23520;DHT22;11936;50.820;4.336;2024-03-22T08:15:02;11.90;99.90
23520;DHT22;11936;50.820;4.336;2024-03-22T08:17:28;11.90;99.90
23520;DHT22;11936;50.820;4.336;2024-03-22T08:19:54;11.90;99.90
23520;DHT22;11936;50.820;4.336;2024-03-22T08:22:19;12.00;99.90
23520;DHT22;11936;50.820;4.336;2024-03-22T08:24:45;12.10;99.90
23520;DHT22;11936;50.820;4.336;2024-03-22T08:27:11;12.20;99.90
23520;DHT22;11936;50.820;4.336;2024-03-22T08:29:37;12.30;99.90
23520;DHT22;11936;50.820;4.336;2024-03-22T08:32:03;12.30;99.90
23520;DHT22;11936;50.820;4.336;2024-03-22T08:34:30;12.10;99.90
23520;DHT22;11936;50.820;4.336;2024-03-22T08:36:56;12.00;99.90
23520;DHT22;11936;50.820;4.336;2024-03-22T08:39:22;12.00;99.90
23520;DHT22;11936;50.820;4.336;2024-03-22T08:41:47;11.90;99.90
23520;DHT22;11936;50.820;4.336;2024-03-22T08:44:13;11.90;99.90
23520;DHT22;11936;50.820;4.336;2024-03-22T08:46:39;12.10;99.90
23520;DHT22;11936;50.820;4.336;2024-03-22T08:49:04;12.20;99.90
23520;DHT22;11936;50.820;4.336;2024-03-22T08:51:30;12.20;99.90
23520;DHT22;11936;50.820;4.336;2024-03-22T08:53:56;12.20;99.90
23520;DHT22;11936;50.820;4.336;2024-03-22T08:56:21;12.30;99.90
23520;DHT22;11936;50.820;4.336;2024-03-22T08:58:47;12.30;99.90
23520;DHT22;11936;50.820;4.336;2024-03-22T09:01:13;12.40;99.90
23520;DHT22;11936;50.820;4.336;2024-03-22T09:03:38;12.30;99.90
23520;DHT22;11936;50.820;4.336;2024-03-22T09:06:04;12.10;99.90
23520;DHT22;11936;50.820;4.336;2024-03-22T09:08:30;12.10;99.90
23520;DHT22;11936;50.820;4.336;2024-03-22T09:10:56;12.10;99.90
23520;DHT22;11936;50.820;4.336;2024-03-22T09:13:22;12.20;99.90
23520;DHT22;11936;50.820;4.336;2024-03-22T09:15:48;12.30;99.90
23520;DHT22;11936;50.820;4.336;2024-03-22T09:18:13;12.40;99.90
23520;DHT22;11936;50.820;4.336;2024-03-22T09:20:39;12.20;99.90
23520;DHT22;11936;50.820;4.336;2024-03-22T09:23:05;12.40;99.90
23520;DHT22;11936;50.820;4.336;2024-03-22T09:25:30;12.50;99.90
23520;DHT22;11936;50.820;4.336;2024-03-22T09:27:56;12.30;99.90
23520;DHT22;11936;50.820;4.336;2024-03-22T09:30:21;12.40;99.90
23520;DHT22;11936;50.820;4.336;2024-03-22T09:32:47;12.40;99.90
23520;DHT22;11936;50.820;4.336;2024-03-22T09:35:13;12.50;99.90
23520;DHT22;11936;50.820;4.336;2024-03-22T09:37:41;12.50;99.90
23520;DHT22;11936;50.820;4.336;2024-03-22T09:40:07;12.60;99.90
23520;DHT22;11936;50.820;4.336;2024-03-22T09:42:33;12.70;99.90
23520;DHT22;11936;50.820;4.336;2024-03-22T09:45:02;12.90;99.90
23520;DHT22;11936;50.820;4.336;2024-03-22T09:47:28;13.00;99.90
23520;DHT22;11936;50.820;4.336;2024-03-22T09:49:55;12.90;99.90
23520;DHT22;11936;50.820;4.336;2024-03-22T09:52:22;12.80;99.90
23520;DHT22;11936;50.820;4.336;2024-03-22T09:54:48;12.80;99.90
23520;DHT22;11936;50.820;4.336;2024-03-22T09:57:17;12.80;99.90
23520;DHT22;11936;50.820;4.336;2024-03-22T09:59:44;12.80;99.90
23520;DHT22;11936;50.820;4.336;2024-03-22T10:02:11;13.00;99.90
23520;DHT22;11936;50.820;4.336;2024-03-22T10:04:43;13.00;99.90
23520;DHT22;11936;50.820;4.336;2024-03-22T10:07:09;13.10;99.90
23520;DHT22;11936;50.820;4.336;2024-03-22T10:09:35;13.00;99.90
23520;DHT22;11936;50.820;4.336;2024-03-22T10:12:01;13.00;99.90
23520;DHT22;11936;50.820;4.336;2024-03-22T10:14:36;13.00;99.90
23520;DHT22;11936;50.820;4.336;2024-03-22T10:17:07;12.90;99.90
23520;DHT22;11936;50.820;4.336;2024-03-22T10:19:33;13.00;99.90
23520;DHT22;11936;50.820;4.336;2024-03-22T10:22:03;13.00;99.90
23520;DHT22;11936;50.820;4.336;2024-03-22T10:24:29;13.10;99.90
23520;DHT22;11936;50.820;4.336;2024-03-22T10:26:55;13.10;99.90
23520;DHT22;11936;50.820;4.336;2024-03-22T10:29:21;13.10;99.90
23520;DHT22;11936;50.820;4.336;2024-03-22T10:31:54;13.00;99.90
23520;DHT22;11936;50.820;4.336;2024-03-22T10:34:24;13.00;99.90
23520;DHT22;11936;50.820;4.336;2024-03-22T10:36:50;12.90;99.90
23520;DHT22;11936;50.820;4.336;2024-03-22T10:39:17;13.00;99.90
23520;DHT22;11936;50.820;4.336;2024-03-22T10:41:47;13.10;99.90
23520;DHT22;11936;50.820;4.336;2024-03-22T10:44:14;13.10;99.90
23520;DHT22;11936;50.820;4.336;2024-03-22T10:46:47;13.00;99.90
23520;DHT22;11936;50.820;4.336;2024-03-22T10:49:17;13.20;99.90
23520;DHT22;11936;50.820;4.336;2024-03-22T10:51:46;13.10;99.90
23520;DHT22;11936;50.820;4.336;2024-03-22T10:56:42;13.20;99.90
23520;DHT22;11936;50.820;4.336;2024-03-22T10:59:08;13.30;99.90
23520;DHT22;11936;50.820;4.336;2024-03-22T11:01:38;13.30;99.90
23520;DHT22;11936;50.820;4.336;2024-03-22T11:04:04;13.30;99.90
23520;DHT22;11936;50.820;4.336;2024-03-22T11:06:31;13.10;99.90
23520;DHT22;11936;50.820;4.336;2024-03-22T11:08:59;13.00;99.90
23520;DHT22;11936;50.820;4.336;2024-03-22T11:11:28;13.00;99.90
23520;DHT22;11936;50.820;4.336;2024-03-22T11:13:54;13.30;99.90
23520;DHT22;11936;50.820;4.336;2024-03-22T11:16:21;13.40;99.90
23520;DHT22;11936;50.820;4.336;2024-03-22T11:18:47;13.60;99.90
23520;DHT22;11936;50.820;4.336;2024-03-22T11:21:14;13.50;99.90
23520;DHT22;11936;50.820;4.336;2024-03-22T11:23:40;13.40;99.90
23520;DHT22;11936;50.820;4.336;2024-03-22T11:26:06;13.40;99.90
23520;DHT22;11936;50.820;4.336;2024-03-22T11:28:33;13.50;99.90
23520;DHT22;11936;50.820;4.336;2024-03-22T11:30:59;13.40;99.90
23520;DHT22;11936;50.820;4.336;2024-03-22T11:33:25;13.40;99.90
23520;DHT22;11936;50.820;4.336;2024-03-22T11:35:52;13.40;99.90
23520;DHT22;11936;50.820;4.336;2024-03-22T11:38:18;13.40;99.90
23520;DHT22;11936;50.820;4.336;2024-03-22T11:40:44;13.50;99.90
23520;DHT22;11936;50.820;4.336;2024-03-22T11:43:15;13.50;99.90
23520;DHT22;11936;50.820;4.336;2024-03-22T11:45:42;13.50;99.90
23520;DHT22;11936;50.820;4.336;2024-03-22T11:48:09;13.40;99.90
23520;DHT22;11936;50.820;4.336;2024-03-22T11:50:37;13.30;99.90
23520;DHT22;11936;50.820;4.336;2024-03-22T11:53:05;13.30;99.90
23520;DHT22;11936;50.820;4.336;2024-03-22T11:55:31;13.30;99.90
23520;DHT22;11936;50.820;4.336;2024-03-22T11:57:58;13.30;99.90
23520;DHT22;11936;50.820;4.336;2024-03-22T12:00:23;13.40;99.90
23520;DHT22;11936;50.820;4.336;2024-03-22T12:02:51;13.50;99.90
23520;DHT22;11936;50.820;4.336;2024-03-22T12:05:17;13.50;99.90
23520;DHT22;11936;50.820;4.336;2024-03-22T12:07:44;13.30;99.90
23520;DHT22;11936;50.820;4.336;2024-03-22T12:10:10;13.30;99.90
23520;DHT22;11936;50.820;4.336;2024-03-22T12:12:35;13.20;99.90
23520;DHT22;11936;50.820;4.336;2024-03-22T12:15:02;13.30;99.90
23520;DHT22;11936;50.820;4.336;2024-03-22T12:17:28;13.40;99.90
23520;DHT22;11936;50.820;4.336;2024-03-22T12:19:54;13.60;99.90
23520;DHT22;11936;50.820;4.336;2024-03-22T12:22:20;13.40;99.90
23520;DHT22;11936;50.820;4.336;2024-03-22T12:24:46;13.30;99.90
23520;DHT22;11936;50.820;4.336;2024-03-22T12:27:11;13.30;99.90
23520;DHT22;11936;50.820;4.336;2024-03-22T12:29:37;13.30;99.90
23520;DHT22;11936;50.820;4.336;2024-03-22T12:32:03;13.30;99.90
23520;DHT22;11936;50.820;4.336;2024-03-22T12:34:30;13.30;99.90
23520;DHT22;11936;50.820;4.336;2024-03-22T12:36:55;13.30;99.90
23520;DHT22;11936;50.820;4.336;2024-03-22T12:39:21;13.30;99.90
23520;DHT22;11936;50.820;4.336;2024-03-22T12:41:47;13.30;99.90
23520;DHT22;11936;50.820;4.336;2024-03-22T12:44:12;13.30;99.90
23520;DHT22;11936;50.820;4.336;2024-03-22T12:46:38;13.30;99.90
23520;DHT22;11936;50.820;4.336;2024-03-22T12:49:04;13.40;99.90
23520;DHT22;11936;50.820;4.336;2024-03-22T12:51:29;13.20;99.90
23520;DHT22;11936;50.820;4.336;2024-03-22T12:53:55;13.40;99.90
23520;DHT22;11936;50.820;4.336;2024-03-22T12:56:21;13.30;99.90
23520;DHT22;11936;50.820;4.336;2024-03-22T12:58:47;13.20;99.90
23520;DHT22;11936;50.820;4.336;2024-03-22T13:01:13;13.20;99.90
23520;DHT22;11936;50.820;4.336;2024-03-22T13:03:39;13.20;99.90
23520;DHT22;11936;50.820;4.336;2024-03-22T13:06:05;13.20;99.90
23520;DHT22;11936;50.820;4.336;2024-03-22T13:08:33;13.20;99.90
23520;DHT22;11936;50.820;4.336;2024-03-22T13:10:59;13.30;99.90
23520;DHT22;11936;50.820;4.336;2024-03-22T13:13:24;13.40;99.90
23520;DHT22;11936;50.820;4.336;2024-03-22T13:15:50;13.30;99.90
23520;DHT22;11936;50.820;4.336;2024-03-22T13:18:16;13.30;99.90
23520;DHT22;11936;50.820;4.336;2024-03-22T13:20:41;13.10;99.90
23520;DHT22;11936;50.820;4.336;2024-03-22T13:23:07;13.10;99.90
23520;DHT22;11936;50.820;4.336;2024-03-22T13:25:35;13.10;99.90
23520;DHT22;11936;50.820;4.336;2024-03-22T13:28:03;13.30;99.90
23520;DHT22;11936;50.820;4.336;2024-03-22T13:30:29;13.30;99.90
23520;DHT22;11936;50.820;4.336;2024-03-22T13:32:55;13.30;99.90
23520;DHT22;11936;50.820;4.336;2024-03-22T13:35:21;13.40;99.90
23520;DHT22;11936;50.820;4.336;2024-03-22T13:37:47;13.40;99.90
23520;DHT22;11936;50.820;4.336;2024-03-22T13:40:12;13.40;99.90
23520;DHT22;11936;50.820;4.336;2024-03-22T13:42:38;13.40;99.90
23520;DHT22;11936;50.820;4.336;2024-03-22T13:45:04;13.50;99.90
23520;DHT22;11936;50.820;4.336;2024-03-22T13:47:29;13.60;99.90
23520;DHT22;11936;50.820;4.336;2024-03-22T13:49:55;13.60;99.90
23520;DHT22;11936;50.820;4.336;2024-03-22T13:52:21;13.60;99.90
23520;DHT22;11936;50.820;4.336;2024-03-22T13:54:47;13.60;99.90
23520;DHT22;11936;50.820;4.336;2024-03-22T13:57:12;13.50;99.90
23520;DHT22;11936;50.820;4.336;2024-03-22T13:59:38;13.50;99.90
23520;DHT22;11936;50.820;4.336;2024-03-22T14:02:06;13.50;99.90
23520;DHT22;11936;50.820;4.336;2024-03-22T14:04:31;13.50;99.90
23520;DHT22;11936;50.820;4.336;2024-03-22T14:06:57;13.60;99.90
23520;DHT22;11936;50.820;4.336;2024-03-22T14:09:23;13.60;99.90
23520;DHT22;11936;50.820;4.336;2024-03-22T14:11:49;13.50;99.90
23520;DHT22;11936;50.820;4.336;2024-03-22T14:14:14;13.40;99.90
23520;DHT22;11936;50.820;4.336;2024-03-22T14:16:40;13.30;99.90
23520;DHT22;11936;50.820;4.336;2024-03-22T14:19:09;13.30;99.90
23520;DHT22;11936;50.820;4.336;2024-03-22T14:21:36;13.40;99.90
23520;DHT22;11936;50.820;4.336;2024-03-22T14:24:04;13.50;99.90
23520;DHT22;11936;50.820;4.336;2024-03-22T14:26:30;13.50;99.90
23520;DHT22;11936;50.820;4.336;2024-03-22T14:28:56;13.40;99.90
23520;DHT22;11936;50.820;4.336;2024-03-22T14:31:21;13.50;99.90
23520;DHT22;11936;50.820;4.336;2024-03-22T14:33:48;13.50;99.90
23520;DHT22;11936;50.820;4.336;2024-03-22T14:36:13;13.40;99.90
23520;DHT22;11936;50.820;4.336;2024-03-22T14:38:39;13.20;99.90
23520;DHT22;11936;50.820;4.336;2024-03-22T14:41:06;13.20;99.90
23520;DHT22;11936;50.820;4.336;2024-03-22T14:43:31;13.20;99.90
23520;DHT22;11936;50.820;4.336;2024-03-22T14:46:00;13.10;99.90
23520;DHT22;11936;50.820;4.336;2024-03-22T14:48:26;13.10;99.90
23520;DHT22;11936;50.820;4.336;2024-03-22T14:50:52;13.10;99.90
23520;DHT22;11936;50.820;4.336;2024-03-22T14:53:22;13.10;99.90
23520;DHT22;11936;50.820;4.336;2024-03-22T14:55:58;13.00;99.90
23520;DHT22;11936;50.820;4.336;2024-03-22T14:58:25;13.00;99.90
23520;DHT22;11936;50.820;4.336;2024-03-22T15:01:04;13.10;99.90
23520;DHT22;11936;50.820;4.336;2024-03-22T15:03:31;13.00;99.90
23520;DHT22;11936;50.820;4.336;2024-03-22T15:05:58;12.90;99.90
23520;DHT22;11936;50.820;4.336;2024-03-22T15:08:25;13.00;99.90
23520;DHT22;11936;50.820;4.336;2024-03-22T15:10:51;12.80;99.90
23520;DHT22;11936;50.820;4.336;2024-03-22T15:13:17;12.70;99.90
23520;DHT22;11936;50.820;4.336;2024-03-22T15:15:57;12.70;99.90
23520;DHT22;11936;50.820;4.336;2024-03-22T15:18:24;12.80;99.90
23520;DHT22;11936;50.820;4.336;2024-03-22T15:20:50;12.70;99.90
23520;DHT22;11936;50.820;4.336;2024-03-22T15:23:17;12.70;99.90
23520;DHT22;11936;50.820;4.336;2024-03-22T15:25:42;12.80;99.90